createdAt,value
2018-09-30T00:00:27.848Z,84.25
2018-09-30T00:01:27.891Z,83.83
2018-09-30T00:02:27.824Z,83.83
2018-09-30T00:03:27.818Z,84.04
2018-09-30T00:04:27.802Z,83.94
2018-09-30T00:05:27.797Z,83.83
2018-09-30T00:06:27.783Z,83.63
2018-09-30T00:07:27.776Z,83.94
2018-09-30T00:08:27.759Z,83.94
2018-09-30T00:09:27.750Z,83.73
2018-09-30T00:10:27.740Z,83.94
2018-09-30T00:11:27.728Z,83.94
2018-09-30T00:12:27.715Z,84.35
2018-09-30T00:13:27.704Z,84.39
2018-09-30T00:14:27.695Z,85.43
2018-09-30T00:15:27.683Z,85.84
2018-09-30T00:16:27.676Z,86.05
2018-09-30T00:17:27.662Z,85.53
2018-09-30T00:18:27.651Z,84.80
2018-09-30T00:19:27.649Z,84.80
2018-09-30T00:20:27.630Z,84.28
2018-09-30T00:21:27.621Z,84.39
2018-09-30T00:22:27.608Z,84.39
2018-09-30T00:23:27.598Z,84.60
2018-09-30T00:24:27.586Z,85.32
2018-09-30T00:25:27.574Z,84.94
2018-09-30T00:26:27.566Z,85.05
2018-09-30T00:27:27.555Z,85.15
2018-09-30T00:28:27.547Z,85.57
2018-09-30T00:29:27.532Z,85.67
2018-09-30T00:30:27.523Z,85.57
2018-09-30T00:31:27.513Z,85.57
2018-09-30T00:32:27.499Z,85.57
2018-09-30T00:33:27.489Z,85.26
2018-09-30T00:34:27.479Z,85.57
2018-09-30T00:35:27.473Z,85.77
2018-09-30T00:36:27.511Z,85.57
2018-09-30T00:37:27.447Z,85.15
2018-09-30T00:38:27.435Z,85.01
2018-09-30T00:39:27.424Z,85.26
2018-09-30T00:40:27.415Z,85.46
2018-09-30T00:41:27.404Z,85.77
2018-09-30T00:42:27.391Z,85.46
2018-09-30T00:43:27.382Z,85.77
2018-09-30T00:44:27.370Z,85.67
2018-09-30T00:45:27.361Z,85.77
2018-09-30T00:46:27.347Z,85.26
2018-09-30T00:47:27.339Z,85.77
2018-09-30T00:48:27.327Z,85.98
2018-09-30T00:49:27.316Z,85.77
2018-09-30T00:50:27.308Z,85.98
2018-09-30T00:51:27.294Z,85.57
2018-09-30T00:52:27.285Z,86.09
2018-09-30T00:53:27.275Z,86.13
2018-09-30T00:54:27.264Z,86.13
2018-09-30T00:55:27.251Z,86.02
2018-09-30T00:56:27.240Z,86.13
2018-09-30T00:57:27.230Z,86.23
2018-09-30T00:58:27.220Z,86.54
2018-09-30T00:59:27.211Z,86.85
2018-09-30T01:00:27.198Z,86.85
2018-09-30T01:01:27.186Z,86.96
2018-09-30T01:02:27.177Z,86.65
2018-09-30T01:03:27.164Z,87.17
2018-09-30T01:04:27.160Z,86.85
2018-09-30T01:05:27.143Z,86.85
2018-09-30T01:06:27.131Z,86.96
2018-09-30T01:07:27.123Z,86.85
2018-09-30T01:08:27.114Z,87.37
2018-09-30T01:09:27.102Z,87.06
2018-09-30T01:10:27.093Z,86.75
2018-09-30T01:11:27.090Z,86.75
2018-09-30T01:12:27.072Z,86.96
2018-09-30T01:13:27.061Z,86.54
2018-09-30T01:14:27.047Z,85.92
2018-09-30T01:15:27.034Z,86.44
2018-09-30T01:16:27.028Z,86.65
2018-09-30T01:17:27.014Z,86.96
2018-09-30T01:18:27.003Z,86.65
2018-09-30T01:19:26.994Z,86.23
2018-09-30T01:20:26.982Z,86.13
2018-09-30T01:21:26.972Z,86.27
2018-09-30T01:22:26.960Z,87.00
2018-09-30T01:23:26.948Z,87.21
2018-09-30T01:24:26.939Z,87.06
2018-09-30T01:25:26.928Z,86.27
2018-09-30T01:26:26.917Z,86.37
2018-09-30T01:27:26.908Z,86.59
2018-09-30T01:28:26.898Z,86.90
2018-09-30T01:29:26.886Z,87.21
2018-09-30T01:30:26.875Z,87.31
2018-09-30T01:31:26.965Z,86.69
2018-09-30T01:32:26.856Z,87.10
2018-09-30T01:33:26.844Z,87.00
2018-09-30T01:34:26.831Z,86.79
2018-09-30T01:35:26.875Z,86.79
2018-09-30T01:36:26.808Z,86.85
2018-09-30T01:37:26.799Z,86.16
2018-09-30T01:38:26.792Z,86.59
2018-09-30T01:39:26.779Z,86.37
2018-09-30T01:40:26.772Z,86.69
2018-09-30T01:41:26.757Z,87.10
2018-09-30T01:42:26.744Z,87.52
2018-09-30T01:43:26.735Z,87.62
2018-09-30T01:44:26.726Z,87.31
2018-09-30T01:45:26.711Z,87.21
2018-09-30T01:46:26.702Z,87.00
2018-09-30T01:47:26.692Z,87.21
2018-09-30T01:48:26.684Z,87.21
2018-09-30T01:49:26.669Z,87.00
2018-09-30T01:50:26.658Z,87.73
2018-09-30T01:51:26.650Z,87.00
2018-09-30T01:52:26.637Z,86.37
2018-09-30T01:53:26.628Z,86.06
2018-09-30T01:54:26.617Z,86.27
2018-09-30T01:55:26.605Z,86.69
2018-09-30T01:56:26.594Z,86.90
2018-09-30T01:57:26.585Z,86.90
2018-09-30T01:58:26.577Z,86.48
2018-09-30T01:59:26.562Z,86.79
2018-09-30T02:00:26.553Z,86.69
2018-09-30T02:01:26.543Z,87.00
2018-09-30T02:02:26.531Z,86.90
2018-09-30T02:03:26.519Z,87.00
2018-09-30T02:04:26.510Z,86.79
2018-09-30T02:05:26.497Z,86.69
2018-09-30T02:06:26.492Z,86.37
2018-09-30T02:07:26.478Z,87.10
2018-09-30T02:08:26.465Z,87.21
2018-09-30T02:09:26.454Z,87.42
2018-09-30T02:10:26.446Z,87.00
2018-09-30T02:11:26.434Z,86.93
2018-09-30T02:12:26.427Z,87.35
2018-09-30T02:13:26.413Z,87.14
2018-09-30T02:14:26.404Z,87.45
2018-09-30T02:15:26.391Z,87.66
2018-09-30T02:16:26.381Z,87.76
2018-09-30T02:17:26.370Z,88.29
2018-09-30T02:18:26.360Z,88.60
2018-09-30T02:19:26.348Z,88.70
2018-09-30T02:20:26.337Z,88.60
2018-09-30T02:21:26.330Z,88.39
2018-09-30T02:22:26.315Z,88.29
2018-09-30T02:23:26.304Z,88.29
2018-09-30T02:24:26.294Z,87.87
2018-09-30T02:25:26.281Z,88.08
2018-09-30T02:26:26.272Z,87.87
2018-09-30T02:27:26.261Z,87.98
2018-09-30T02:28:26.253Z,87.76
2018-09-30T02:29:26.241Z,87.98
2018-09-30T02:30:26.231Z,88.33
2018-09-30T02:31:26.255Z,88.43
2018-09-30T02:32:26.209Z,88.53
2018-09-30T02:33:26.197Z,88.74
2018-09-30T02:34:26.190Z,88.74
2018-09-30T02:35:26.177Z,88.33
2018-09-30T02:36:26.167Z,88.53
2018-09-30T02:37:26.158Z,88.78
2018-09-30T02:38:26.144Z,88.68
2018-09-30T02:39:26.131Z,89.09
2018-09-30T02:40:26.125Z,89.09
2018-09-30T02:41:26.111Z,89.20
2018-09-30T02:42:26.100Z,89.83
2018-09-30T02:43:26.092Z,89.62
2018-09-30T02:44:26.084Z,89.83
2018-09-30T02:45:26.076Z,89.62
2018-09-30T02:46:26.058Z,89.72
2018-09-30T02:47:26.046Z,89.72
2018-09-30T02:48:26.042Z,89.52
2018-09-30T02:49:26.025Z,89.93
2018-09-30T02:50:26.015Z,89.41
2018-09-30T02:51:26.005Z,89.93
2018-09-30T02:52:25.993Z,89.52
2018-09-30T02:53:25.984Z,89.72
2018-09-30T02:54:25.974Z,89.83
2018-09-30T02:55:25.960Z,90.24
2018-09-30T02:56:25.949Z,90.14
2018-09-30T02:57:25.940Z,90.49
2018-09-30T02:58:25.929Z,90.70
2018-09-30T02:59:25.918Z,90.91
2018-09-30T03:00:25.907Z,90.91
2018-09-30T03:01:25.895Z,90.80
2018-09-30T03:02:25.886Z,91.22
2018-09-30T03:03:25.874Z,90.80
2018-09-30T03:04:25.867Z,90.60
2018-09-30T03:05:25.852Z,90.80
2018-09-30T03:06:25.843Z,90.91
2018-09-30T03:07:25.831Z,91.01
2018-09-30T03:08:25.821Z,90.28
2018-09-30T03:09:25.808Z,90.18
2018-09-30T03:10:25.801Z,89.86
2018-09-30T03:11:25.787Z,89.97
2018-09-30T03:12:25.777Z,90.49
2018-09-30T03:13:25.766Z,90.70
2018-09-30T03:14:25.756Z,90.49
2018-09-30T03:15:25.753Z,90.28
2018-09-30T03:16:25.734Z,90.39
2018-09-30T03:17:25.723Z,90.49
2018-09-30T03:18:25.714Z,90.49
2018-09-30T03:19:25.706Z,90.39
2018-09-30T03:20:25.694Z,90.70
2018-09-30T03:21:25.685Z,90.49
2018-09-30T03:22:25.676Z,89.86
2018-09-30T03:23:25.660Z,90.28
2018-09-30T03:24:25.665Z,90.08
2018-09-30T03:25:25.638Z,89.97
2018-09-30T03:26:25.627Z,90.28
2018-09-30T03:27:25.616Z,89.97
2018-09-30T03:28:25.607Z,89.76
2018-09-30T03:29:25.599Z,89.86
2018-09-30T03:30:25.584Z,89.70
2018-09-30T03:31:25.573Z,90.22
2018-09-30T03:32:25.565Z,90.53
2018-09-30T03:33:25.553Z,90.53
2018-09-30T03:34:25.542Z,90.32
2018-09-30T03:35:25.531Z,90.53
2018-09-30T03:36:25.519Z,90.08
2018-09-30T03:37:25.512Z,90.28
2018-09-30T03:38:25.498Z,90.18
2018-09-30T03:39:25.510Z,90.32
2018-09-30T03:40:25.478Z,90.49
2018-09-30T03:41:25.465Z,90.28
2018-09-30T03:42:25.461Z,89.86
2018-09-30T03:43:25.447Z,89.97
2018-09-30T03:44:25.440Z,90.28
2018-09-30T03:45:25.422Z,89.97
2018-09-30T03:46:25.412Z,90.28
2018-09-30T03:47:25.400Z,89.91
2018-09-30T03:48:25.392Z,90.32
2018-09-30T03:49:25.383Z,90.32
2018-09-30T03:50:25.369Z,90.22
2018-09-30T03:51:25.358Z,90.22
2018-09-30T03:52:25.347Z,90.22
2018-09-30T03:53:25.338Z,90.32
2018-09-30T03:54:25.327Z,90.01
2018-09-30T03:55:25.313Z,90.43
2018-09-30T03:56:25.304Z,90.32
2018-09-30T03:57:25.295Z,90.01
2018-09-30T03:58:25.307Z,89.91
2018-09-30T03:59:25.275Z,90.01
2018-09-30T04:00:25.262Z,90.22
2018-09-30T04:01:25.251Z,90.53
2018-09-30T04:02:25.241Z,90.22
2018-09-30T04:03:25.228Z,90.22
2018-09-30T04:04:25.220Z,90.32
2018-09-30T04:05:25.208Z,90.32
2018-09-30T04:06:25.199Z,90.32
2018-09-30T04:07:25.185Z,90.53
2018-09-30T04:08:25.186Z,90.32
2018-09-30T04:09:25.178Z,90.32
2018-09-30T04:10:25.156Z,90.11
2018-09-30T04:11:25.144Z,90.11
2018-09-30T04:12:25.134Z,90.43
2018-09-30T04:13:25.121Z,90.32
2018-09-30T04:14:25.112Z,90.22
2018-09-30T04:15:25.103Z,90.32
2018-09-30T04:16:25.092Z,90.64
2018-09-30T04:17:25.177Z,91.16
2018-09-30T04:18:25.067Z,90.85
2018-09-30T04:19:25.061Z,90.53
2018-09-30T04:20:25.047Z,90.32
2018-09-30T04:21:25.037Z,90.64
2018-09-30T04:22:25.026Z,90.89
2018-09-30T04:23:25.015Z,90.57
2018-09-30T04:24:25.004Z,91.10
2018-09-30T04:25:24.992Z,91.30
2018-09-30T04:26:24.984Z,91.61
2018-09-30T04:27:24.972Z,91.51
2018-09-30T04:28:24.963Z,91.20
2018-09-30T04:29:24.952Z,91.20
2018-09-30T04:30:24.940Z,91.51
2018-09-30T04:31:24.929Z,91.30
2018-09-30T04:32:24.919Z,90.89
2018-09-30T04:33:25.024Z,90.89
2018-09-30T04:34:24.898Z,91.10
2018-09-30T04:35:24.886Z,90.89
2018-09-30T04:36:24.876Z,90.99
2018-09-30T04:37:24.865Z,91.41
2018-09-30T04:38:24.856Z,91.30
2018-09-30T04:39:24.849Z,90.99
2018-09-30T04:40:24.832Z,90.89
2018-09-30T04:41:24.824Z,91.30
2018-09-30T04:42:24.810Z,91.24
2018-09-30T04:43:24.799Z,91.35
2018-09-30T04:44:24.790Z,91.55
2018-09-30T04:45:24.777Z,91.55
2018-09-30T04:46:24.770Z,91.35
2018-09-30T04:47:24.759Z,91.24
2018-09-30T04:48:24.747Z,91.45
2018-09-30T04:49:24.737Z,91.87
2018-09-30T04:50:24.724Z,91.66
2018-09-30T04:51:24.716Z,91.45
2018-09-30T04:52:24.705Z,91.55
2018-09-30T04:53:24.694Z,91.55
2018-09-30T04:54:24.683Z,91.66
2018-09-30T04:55:24.673Z,91.35
2018-09-30T04:56:24.662Z,91.55
2018-09-30T04:57:24.653Z,91.35
2018-09-30T04:58:24.641Z,91.55
2018-09-30T04:59:24.629Z,91.87
2018-09-30T05:00:24.619Z,91.45
2018-09-30T05:01:24.607Z,91.24
2018-09-30T05:02:24.598Z,91.45
2018-09-30T05:03:24.586Z,91.35
2018-09-30T05:04:24.579Z,90.93
2018-09-30T05:05:24.565Z,91.24
2018-09-30T05:06:24.553Z,91.66
2018-09-30T05:07:24.546Z,91.35
2018-09-30T05:08:24.537Z,91.55
2018-09-30T05:09:24.528Z,91.29
2018-09-30T05:10:24.511Z,91.60
2018-09-30T05:11:24.502Z,91.70
2018-09-30T05:12:24.490Z,91.70
2018-09-30T05:13:24.481Z,91.60
2018-09-30T05:14:24.469Z,91.70
2018-09-30T05:15:24.458Z,91.70
2018-09-30T05:16:24.490Z,91.60
2018-09-30T05:17:24.436Z,91.70
2018-09-30T05:18:24.426Z,91.49
2018-09-30T05:19:24.423Z,91.49
2018-09-30T05:20:24.403Z,92.01
2018-09-30T05:21:24.396Z,91.70
2018-09-30T05:22:24.388Z,91.70
2018-09-30T05:23:24.373Z,91.49
2018-09-30T05:24:24.361Z,91.91
2018-09-30T05:25:24.349Z,91.60
2018-09-30T05:26:24.340Z,91.70
2018-09-30T05:27:24.331Z,91.70
2018-09-30T05:28:24.318Z,91.80
2018-09-30T05:29:24.307Z,91.80
2018-09-30T05:30:24.299Z,91.49
2018-09-30T05:31:24.286Z,91.18
2018-09-30T05:32:24.275Z,91.49
2018-09-30T05:33:24.267Z,91.70
2018-09-30T05:34:24.253Z,91.39
2018-09-30T05:35:24.244Z,91.49
2018-09-30T05:36:24.233Z,91.49
2018-09-30T05:37:24.229Z,91.60
2018-09-30T05:38:24.211Z,91.07
2018-09-30T05:39:24.201Z,91.07
2018-09-30T05:40:24.190Z,91.07
2018-09-30T05:41:24.182Z,91.29
2018-09-30T05:42:24.182Z,91.24
2018-09-30T05:43:24.158Z,90.61
2018-09-30T05:44:24.148Z,90.61
2018-09-30T05:45:24.137Z,90.97
2018-09-30T05:46:24.129Z,91.29
2018-09-30T05:47:24.118Z,90.93
2018-09-30T05:48:24.107Z,90.51
2018-09-30T05:49:24.095Z,90.51
2018-09-30T05:50:24.081Z,90.51
2018-09-30T05:51:24.076Z,90.41
2018-09-30T05:52:24.063Z,90.45
2018-09-30T05:53:24.051Z,90.35
2018-09-30T05:54:24.041Z,90.76
2018-09-30T05:55:24.030Z,90.97
2018-09-30T05:56:24.018Z,91.39
2018-09-30T05:57:24.056Z,91.07
2018-09-30T05:58:23.996Z,90.47
2018-09-30T05:59:23.987Z,87.95
2018-09-30T06:00:23.976Z,84.26
2018-09-30T06:01:23.967Z,80.82
2018-09-30T06:02:23.955Z,78.71
2018-09-30T06:03:23.943Z,76.04
2018-09-30T06:04:23.932Z,74.87
2018-09-30T06:05:23.923Z,74.15
2018-09-30T06:06:23.911Z,73.91
2018-09-30T06:07:23.902Z,72.63
2018-09-30T06:08:23.888Z,72.29
2018-09-30T06:09:23.895Z,71.63
2018-09-30T06:10:23.870Z,70.81
2018-09-30T06:11:23.861Z,69.95
2018-09-30T06:12:23.847Z,69.29
2018-09-30T06:13:23.837Z,68.44
2018-09-30T06:14:23.825Z,67.82
2018-09-30T06:15:23.815Z,67.27
2018-09-30T06:16:23.808Z,66.52
2018-09-30T06:17:23.796Z,66.10
2018-09-30T06:18:23.782Z,65.59
2018-09-30T06:19:23.772Z,65.14
2018-09-30T06:20:23.762Z,65.14
2018-09-30T06:21:23.751Z,64.94
2018-09-30T06:22:23.742Z,65.35
2018-09-30T06:23:23.730Z,64.50
2018-09-30T06:24:23.717Z,64.60
2018-09-30T06:25:23.707Z,64.60
2018-09-30T06:26:23.696Z,64.09
2018-09-30T06:27:23.686Z,64.06
2018-09-30T06:28:23.674Z,63.00
2018-09-30T06:29:23.669Z,62.69
2018-09-30T06:30:23.655Z,62.69
2018-09-30T06:31:23.643Z,61.84
2018-09-30T06:32:23.632Z,61.84
2018-09-30T06:33:23.620Z,61.43
2018-09-30T06:34:23.609Z,61.70
2018-09-30T06:35:23.599Z,61.94
2018-09-30T06:36:23.588Z,61.26
2018-09-30T06:37:23.628Z,60.85
2018-09-30T06:38:23.568Z,60.98
2018-09-30T06:39:23.557Z,60.54
2018-09-30T06:40:23.646Z,60.13
2018-09-30T06:41:23.535Z,59.93
2018-09-30T06:42:23.524Z,60.34
2018-09-30T06:43:23.512Z,60.13
2018-09-30T06:44:23.503Z,59.93
2018-09-30T06:45:23.576Z,59.90
2018-09-30T06:46:23.483Z,59.59
2018-09-30T06:47:23.470Z,59.80
2018-09-30T06:48:23.460Z,59.36
2018-09-30T06:49:23.449Z,58.33
2018-09-30T06:50:23.436Z,57.76
2018-09-30T06:51:23.425Z,57.33
2018-09-30T06:52:23.420Z,57.46
2018-09-30T06:53:23.406Z,57.97
2018-09-30T06:54:23.393Z,57.53
2018-09-30T06:55:23.383Z,57.23
2018-09-30T06:56:23.375Z,57.76
2018-09-30T06:57:23.361Z,57.94
2018-09-30T06:58:23.351Z,58.17
2018-09-30T06:59:23.338Z,57.43
2018-09-30T07:00:23.328Z,58.30
2018-09-30T07:01:23.318Z,59.05
2018-09-30T07:02:23.307Z,59.90
2018-09-30T07:03:23.296Z,61.37
2018-09-30T07:04:23.287Z,62.63
2018-09-30T07:05:23.276Z,62.42
2018-09-30T07:06:23.266Z,64.41
2018-09-30T07:07:23.255Z,63.44
2018-09-30T07:08:23.244Z,66.04
2018-09-30T07:09:23.234Z,67.24
2018-09-30T07:10:23.224Z,68.92
2018-09-30T07:11:23.212Z,70.12
2018-09-30T07:12:23.201Z,72.32
2018-09-30T07:13:23.190Z,72.91
2018-09-30T07:14:23.176Z,73.87
2018-09-30T07:15:23.167Z,75.77
2018-09-30T07:16:23.157Z,77.88
2018-09-30T07:17:23.145Z,77.56
2018-09-30T07:18:23.137Z,77.77
2018-09-30T07:19:23.128Z,77.88
2018-09-30T07:20:23.113Z,77.70
2018-09-30T07:21:23.107Z,78.12
2018-09-30T07:22:23.183Z,78.95
2018-09-30T07:23:23.083Z,79.57
2018-09-30T07:24:23.071Z,79.12
2018-09-30T07:25:23.059Z,78.81
2018-09-30T07:26:23.048Z,79.33
2018-09-30T07:27:23.036Z,78.67
2018-09-30T07:28:23.027Z,77.74
2018-09-30T07:29:23.016Z,79.08
2018-09-30T07:30:23.006Z,77.94
2018-09-30T07:31:22.998Z,78.53
2018-09-30T07:32:22.983Z,77.39
2018-09-30T07:33:22.973Z,78.32
2018-09-30T07:34:22.960Z,79.05
2018-09-30T07:35:22.952Z,78.63
2018-09-30T07:36:22.951Z,78.32
2018-09-30T07:37:22.929Z,78.22
2018-09-30T07:38:22.919Z,77.36
2018-09-30T07:39:22.916Z,77.46
2018-09-30T07:40:22.899Z,77.56
2018-09-30T07:41:22.887Z,78.28
2018-09-30T07:42:22.875Z,78.39
2018-09-30T07:43:22.865Z,78.60
2018-09-30T07:44:22.852Z,77.94
2018-09-30T07:45:22.844Z,78.14
2018-09-30T07:46:22.832Z,76.08
2018-09-30T07:47:22.825Z,75.94
2018-09-30T07:48:22.816Z,76.56
2018-09-30T07:49:22.801Z,76.66
2018-09-30T07:50:22.790Z,76.36
2018-09-30T07:51:22.776Z,76.32
2018-09-30T07:52:22.787Z,75.59
2018-09-30T07:53:22.755Z,75.39
2018-09-30T07:54:22.745Z,74.87
2018-09-30T07:55:22.734Z,74.87
2018-09-30T07:56:22.724Z,75.04
2018-09-30T07:57:22.716Z,75.76
2018-09-30T07:58:22.703Z,74.94
2018-09-30T07:59:22.695Z,75.36
2018-09-30T08:00:22.679Z,74.29
2018-09-30T08:01:22.668Z,74.29
2018-09-30T08:02:22.658Z,75.32
2018-09-30T08:03:22.647Z,74.60
2018-09-30T08:04:22.638Z,73.87
2018-09-30T08:05:22.625Z,74.77
2018-09-30T08:06:22.680Z,74.67
2018-09-30T08:07:22.604Z,74.53
2018-09-30T08:08:22.593Z,74.12
2018-09-30T08:09:22.585Z,72.26
2018-09-30T08:10:22.573Z,72.22
2018-09-30T08:11:22.562Z,72.12
2018-09-30T08:12:22.549Z,72.12
2018-09-30T08:13:22.539Z,71.37
2018-09-30T08:14:22.528Z,71.27
2018-09-30T08:15:22.520Z,71.33
2018-09-30T08:16:22.529Z,71.03
2018-09-30T08:17:22.497Z,70.61
2018-09-30T08:18:22.485Z,70.72
2018-09-30T08:19:22.474Z,70.72
2018-09-30T08:20:22.464Z,70.41
2018-09-30T08:21:22.453Z,70.27
2018-09-30T08:22:22.441Z,70.48
2018-09-30T08:23:22.430Z,70.27
2018-09-30T08:24:22.441Z,70.17
2018-09-30T08:25:22.411Z,70.34
2018-09-30T08:26:22.399Z,70.14
2018-09-30T08:27:22.389Z,69.73
2018-09-30T08:28:22.375Z,69.62
2018-09-30T08:29:22.369Z,69.39
2018-09-30T08:30:22.356Z,69.08
2018-09-30T08:31:22.354Z,69.90
2018-09-30T08:32:22.334Z,69.39
2018-09-30T08:33:22.329Z,68.67
2018-09-30T08:34:22.314Z,68.74
2018-09-30T08:35:22.303Z,68.43
2018-09-30T08:36:22.291Z,69.01
2018-09-30T08:37:22.281Z,68.50
2018-09-30T08:38:22.275Z,68.47
2018-09-30T08:39:22.259Z,67.75
2018-09-30T08:40:22.248Z,67.44
2018-09-30T08:41:22.242Z,67.21
2018-09-30T08:42:22.224Z,67.31
2018-09-30T08:43:22.216Z,66.90
2018-09-30T08:44:22.245Z,67.00
2018-09-30T08:45:22.193Z,66.69
2018-09-30T08:46:22.189Z,67.18
2018-09-30T08:47:22.213Z,66.87
2018-09-30T08:48:22.160Z,66.97
2018-09-30T08:49:22.196Z,67.18
2018-09-30T08:50:22.139Z,67.38
2018-09-30T08:51:22.127Z,67.18
2018-09-30T08:52:22.119Z,66.32
2018-09-30T08:53:22.108Z,66.22
2018-09-30T08:54:22.097Z,66.08
2018-09-30T08:55:22.086Z,66.08
2018-09-30T08:56:22.080Z,66.40
2018-09-30T08:57:22.065Z,66.08
2018-09-30T08:58:22.052Z,65.88
2018-09-30T08:59:22.042Z,65.44
2018-09-30T09:00:22.032Z,65.44
2018-09-30T09:01:22.020Z,65.96
2018-09-30T09:02:22.014Z,65.13
2018-09-30T09:03:21.999Z,65.55
2018-09-30T09:04:21.989Z,65.44
2018-09-30T09:05:21.978Z,64.49
2018-09-30T09:06:21.967Z,64.69
2018-09-30T09:07:21.956Z,64.49
2018-09-30T09:08:21.944Z,63.84
2018-09-30T09:09:21.931Z,63.51
2018-09-30T09:10:21.923Z,63.20
2018-09-30T09:11:21.914Z,62.79
2018-09-30T09:12:21.903Z,63.17
2018-09-30T09:13:21.894Z,63.28
2018-09-30T09:14:21.879Z,63.17
2018-09-30T09:15:21.903Z,63.38
2018-09-30T09:16:21.858Z,63.69
2018-09-30T09:17:21.845Z,63.79
2018-09-30T09:18:21.834Z,63.45
2018-09-30T09:19:21.824Z,63.04
2018-09-30T09:20:21.814Z,62.53
2018-09-30T09:21:21.803Z,62.02
2018-09-30T09:22:21.869Z,62.12
2018-09-30T09:23:21.784Z,62.20
2018-09-30T09:24:21.770Z,62.20
2018-09-30T09:25:21.770Z,61.68
2018-09-30T09:26:21.751Z,60.15
2018-09-30T09:27:21.740Z,62.09
2018-09-30T09:28:21.726Z,60.84
2018-09-30T09:29:21.717Z,61.35
2018-09-30T09:30:21.706Z,61.76
2018-09-30T09:31:21.696Z,61.42
2018-09-30T09:32:21.683Z,61.22
2018-09-30T09:33:21.673Z,61.32
2018-09-30T09:34:21.662Z,60.17
2018-09-30T09:35:21.655Z,60.07
2018-09-30T09:36:21.641Z,57.51
2018-09-30T09:37:21.630Z,58.64
2018-09-30T09:38:21.649Z,59.56
2018-09-30T09:39:21.610Z,59.94
2018-09-30T09:40:21.597Z,58.00
2018-09-30T09:41:21.588Z,59.81
2018-09-30T09:42:21.578Z,57.77
2018-09-30T09:43:21.567Z,57.87
2018-09-30T09:44:21.561Z,58.35
2018-09-30T09:45:21.545Z,56.72
2018-09-30T09:46:21.539Z,55.37
2018-09-30T09:47:21.525Z,55.07
2018-09-30T09:48:21.512Z,54.33
2018-09-30T09:49:21.500Z,55.04
2018-09-30T09:50:21.489Z,56.54
2018-09-30T09:51:21.482Z,57.05
2018-09-30T09:52:21.485Z,56.44
2018-09-30T09:53:21.458Z,55.93
2018-09-30T09:54:21.454Z,53.28
2018-09-30T09:55:21.438Z,55.30
2018-09-30T09:56:21.427Z,56.82
2018-09-30T09:57:21.415Z,57.12
2018-09-30T09:58:21.405Z,56.21
2018-09-30T09:59:21.448Z,54.38
2018-09-30T10:00:21.384Z,55.30
2018-09-30T10:01:21.373Z,55.90
2018-09-30T10:02:21.361Z,53.36
2018-09-30T10:03:21.351Z,50.92
2018-09-30T10:04:21.339Z,50.59
2018-09-30T10:05:21.328Z,49.99
2018-09-30T10:06:21.318Z,53.11
2018-09-30T10:07:21.305Z,54.54
2018-09-30T10:08:21.298Z,54.63
2018-09-30T10:09:21.285Z,54.74
2018-09-30T10:10:21.275Z,54.81
2018-09-30T10:11:21.267Z,53.01
2018-09-30T10:12:21.254Z,51.36
2018-09-30T10:13:21.348Z,55.32
2018-09-30T10:14:21.232Z,53.11
2018-09-30T10:15:21.220Z,53.72
2018-09-30T10:16:21.209Z,55.55
2018-09-30T10:17:21.199Z,52.38
2018-09-30T10:18:21.188Z,52.38
2018-09-30T10:19:21.217Z,54.91
2018-09-30T10:20:21.169Z,51.15
2018-09-30T10:21:21.164Z,51.54
2018-09-30T10:22:21.145Z,50.53
2018-09-30T10:23:21.138Z,50.12
2018-09-30T10:24:21.123Z,49.00
2018-09-30T10:25:21.111Z,49.31
2018-09-30T10:26:21.103Z,52.94
2018-09-30T10:27:21.091Z,52.94
2018-09-30T10:28:21.082Z,52.43
2018-09-30T10:29:21.069Z,49.59
2018-09-30T10:30:21.059Z,50.37
2018-09-30T10:31:21.049Z,50.48
2018-09-30T10:32:21.036Z,50.28
2018-09-30T10:33:21.031Z,49.16
2018-09-30T10:34:21.018Z,49.06
2018-09-30T10:35:21.004Z,47.86
2018-09-30T10:36:20.994Z,46.85
2018-09-30T10:37:21.030Z,47.86
2018-09-30T10:38:21.080Z,47.96
2018-09-30T10:39:21.231Z,47.25
2018-09-30T10:40:20.951Z,45.20
2018-09-30T10:41:20.938Z,45.20
2018-09-30T10:42:20.930Z,44.88
2018-09-30T10:43:20.924Z,44.98
2018-09-30T10:44:20.915Z,46.09
2018-09-30T10:45:20.895Z,47.61
2018-09-30T10:46:20.886Z,49.92
2018-09-30T10:47:20.885Z,48.91
2018-09-30T10:48:20.905Z,48.10
2018-09-30T10:49:20.853Z,47.80
2018-09-30T10:50:20.848Z,48.40
2018-09-30T10:51:20.834Z,47.41
2018-09-30T10:52:20.823Z,47.01
2018-09-30T10:53:20.810Z,44.68
2018-09-30T10:54:20.802Z,43.87
2018-09-30T10:55:20.843Z,43.54
2018-09-30T10:56:20.780Z,42.63
2018-09-30T10:57:20.769Z,42.53
2018-09-30T10:58:20.761Z,42.81
2018-09-30T10:59:20.749Z,43.02
2018-09-30T11:00:20.736Z,43.32
2018-09-30T11:01:20.751Z,42.49
2018-09-30T11:02:20.716Z,42.79
2018-09-30T11:03:20.743Z,42.99
2018-09-30T11:04:20.694Z,43.18
2018-09-30T11:05:20.682Z,45.53
2018-09-30T11:06:20.672Z,44.64
2018-09-30T11:07:20.660Z,46.96
2018-09-30T11:08:20.648Z,47.45
2018-09-30T11:09:20.637Z,46.74
2018-09-30T11:10:20.636Z,46.05
2018-09-30T11:11:20.617Z,43.82
2018-09-30T11:12:20.605Z,44.03
2018-09-30T11:13:20.595Z,43.12
2018-09-30T11:14:20.585Z,43.02
2018-09-30T11:15:20.578Z,45.62
2018-09-30T11:16:20.565Z,45.93
2018-09-30T11:17:20.549Z,42.59
2018-09-30T11:18:20.546Z,41.78
2018-09-30T11:19:20.529Z,41.90
2018-09-30T11:20:20.520Z,42.19
2018-09-30T11:21:20.510Z,42.90
2018-09-30T11:22:20.518Z,41.76
2018-09-30T11:23:20.488Z,44.21
2018-09-30T11:24:20.478Z,43.50
2018-09-30T11:25:20.463Z,44.79
2018-09-30T11:26:20.457Z,44.79
2018-09-30T11:27:20.440Z,45.50
2018-09-30T11:28:20.435Z,44.70
2018-09-30T11:29:20.420Z,44.79
2018-09-30T11:30:20.408Z,43.78
2018-09-30T11:31:20.399Z,45.41
2018-09-30T11:32:20.386Z,45.08
2018-09-30T11:33:20.378Z,44.78
2018-09-30T11:34:20.366Z,45.58
2018-09-30T11:35:20.356Z,46.19
2018-09-30T11:36:20.346Z,45.89
2018-09-30T11:37:20.335Z,43.56
2018-09-30T11:38:20.324Z,44.58
2018-09-30T11:39:20.323Z,42.05
2018-09-30T11:40:20.302Z,43.26
2018-09-30T11:41:20.292Z,43.67
2018-09-30T11:42:20.279Z,41.64
2018-09-30T11:43:20.267Z,41.74
2018-09-30T11:44:20.258Z,45.28
2018-09-30T11:45:20.246Z,43.36
2018-09-30T11:46:20.236Z,42.57
2018-09-30T11:47:20.228Z,42.57
2018-09-30T11:48:20.215Z,42.87
2018-09-30T11:49:20.203Z,45.50
2018-09-30T11:50:20.192Z,44.58
2018-09-30T11:51:20.181Z,45.58
2018-09-30T11:52:20.172Z,43.26
2018-09-30T11:53:20.160Z,43.36
2018-09-30T11:54:20.149Z,43.06
2018-09-30T11:55:20.137Z,42.75
2018-09-30T11:56:20.130Z,42.53
2018-09-30T11:57:20.117Z,42.53
2018-09-30T11:58:20.107Z,41.42
2018-09-30T11:59:20.094Z,41.72
2018-09-30T12:00:20.086Z,43.54
2018-09-30T12:01:20.210Z,44.45
2018-09-30T12:02:20.092Z,43.64
2018-09-30T12:03:20.053Z,43.95
2018-09-30T12:04:20.045Z,44.35
2018-09-30T12:05:20.032Z,42.13
2018-09-30T12:06:20.023Z,43.64
2018-09-30T12:07:20.009Z,43.95
2018-09-30T12:08:20.000Z,42.02
2018-09-30T12:09:19.986Z,41.93
2018-09-30T12:10:19.976Z,41.82
2018-09-30T12:11:19.965Z,41.42
2018-09-30T12:12:19.954Z,41.52
2018-09-30T12:13:19.942Z,42.13
2018-09-30T12:14:19.934Z,43.64
2018-09-30T12:15:19.921Z,44.94
2018-09-30T12:16:19.912Z,45.84
2018-09-30T12:17:19.899Z,43.84
2018-09-30T12:18:19.891Z,42.81
2018-09-30T12:19:19.889Z,43.22
2018-09-30T12:20:19.867Z,44.83
2018-09-30T12:21:19.862Z,45.24
2018-09-30T12:22:19.848Z,43.04
2018-09-30T12:23:19.835Z,42.43
2018-09-30T12:24:19.823Z,43.12
2018-09-30T12:25:19.816Z,42.91
2018-09-30T12:26:19.803Z,41.70
2018-09-30T12:27:19.794Z,41.90
2018-09-30T12:28:19.782Z,41.79
2018-09-30T12:29:19.771Z,42.99
2018-09-30T12:30:19.763Z,43.01
2018-09-30T12:31:19.750Z,41.82
2018-09-30T12:32:19.738Z,42.23
2018-09-30T12:33:19.729Z,44.75
2018-09-30T12:34:19.717Z,45.97
2018-09-30T12:35:19.706Z,44.65
2018-09-30T12:36:19.696Z,44.86
2018-09-30T12:37:19.684Z,42.63
2018-09-30T12:38:19.674Z,41.90
2018-09-30T12:39:19.703Z,41.30
2018-09-30T12:40:19.653Z,42.41
2018-09-30T12:41:19.644Z,41.20
2018-09-30T12:42:19.630Z,40.29
2018-09-30T12:43:19.620Z,42.51
2018-09-30T12:44:19.609Z,41.30
2018-09-30T12:45:19.599Z,40.27
2018-09-30T12:46:19.589Z,43.52
2018-09-30T12:47:19.578Z,41.10
2018-09-30T12:48:19.567Z,41.70
2018-09-30T12:49:19.556Z,43.54
2018-09-30T12:50:19.548Z,41.52
2018-09-30T12:51:19.534Z,42.53
2018-09-30T12:52:19.524Z,44.03